sensor_id;sensor_type;location;lat;lon;timestamp;pressure;altitude;pressure_sealevel;temperature;humidity
43814;BME280;29669;55.706;37.656;2022-08-03T00:02:05;100005.69;;;21.47;45.00
43814;BME280;29669;55.706;37.656;2022-08-03T00:05:26;100014.38;;;21.48;45.00
43814;BME280;29669;55.706;37.656;2022-08-03T00:09:08;100010.25;;;21.52;45.20
43814;BME280;29669;55.706;37.656;2022-08-03T00:12:30;100013.06;;;21.57;44.99
43814;BME280;29669;55.706;37.656;2022-08-03T00:15:52;100009.34;;;21.58;44.94
43814;BME280;29669;55.706;37.656;2022-08-03T00:19:13;100008.00;;;21.56;45.26
43814;BME280;29669;55.706;37.656;2022-08-03T00:22:34;100013.94;;;21.51;45.33
43814;BME280;29669;55.706;37.656;2022-08-03T07:15:56;100079.69;;;27.98;37.61
43814;BME280;29669;55.706;37.656;2022-08-03T07:19:18;100077.03;;;28.03;36.99
43814;BME280;29669;55.706;37.656;2022-08-03T07:22:39;100081.00;;;28.15;36.86
43814;BME280;29669;55.706;37.656;2022-08-03T07:26:00;100075.38;;;28.27;36.40
43814;BME280;29669;55.706;37.656;2022-08-03T07:29:21;100087.06;;;28.41;36.43
43814;BME280;29669;55.706;37.656;2022-08-03T07:32:42;100092.66;;;28.54;35.83
43814;BME280;29669;55.706;37.656;2022-08-03T07:36:03;100084.34;;;28.71;35.33
43814;BME280;29669;55.706;37.656;2022-08-03T07:39:24;100083.19;;;28.87;34.96
43814;BME280;29669;55.706;37.656;2022-08-03T07:42:45;100081.75;;;29.05;34.80
43814;BME280;29669;55.706;37.656;2022-08-03T07:46:06;100080.84;;;29.24;34.41
43814;BME280;29669;55.706;37.656;2022-08-03T07:49:32;100083.38;;;29.49;33.87
43814;BME280;29669;55.706;37.656;2022-08-03T07:52:53;100074.41;;;29.69;33.58
43814;BME280;29669;55.706;37.656;2022-08-03T07:56:14;100087.69;;;30.08;33.10
43814;BME280;29669;55.706;37.656;2022-08-03T07:59:35;100089.91;;;30.53;32.36
43814;BME280;29669;55.706;37.656;2022-08-03T08:03:13;100089.56;;;30.83;31.66
43814;BME280;29669;55.706;37.656;2022-08-03T08:06:56;100093.06;;;31.02;31.18
43814;BME280;29669;55.706;37.656;2022-08-03T08:10:17;100091.38;;;31.11;30.98
43814;BME280;29669;55.706;37.656;2022-08-03T08:13:38;100097.72;;;31.15;30.97
43814;BME280;29669;55.706;37.656;2022-08-03T08:16:59;100083.59;;;30.91;30.93
43814;BME280;29669;55.706;37.656;2022-08-03T08:20:26;100102.06;;;30.69;31.11
43814;BME280;29669;55.706;37.656;2022-08-03T08:23:49;100092.72;;;30.67;30.82
43814;BME280;29669;55.706;37.656;2022-08-03T08:27:15;100093.78;;;30.89;30.55
43814;BME280;29669;55.706;37.656;2022-08-03T08:30:56;100097.66;;;31.02;30.58
43814;BME280;29669;55.706;37.656;2022-08-03T08:34:17;100087.78;;;30.97;30.57
43814;BME280;29669;55.706;37.656;2022-08-03T08:37:38;100086.25;;;30.91;30.92
43814;BME280;29669;55.706;37.656;2022-08-03T08:40:57;100082.16;;;30.75;30.74
43814;BME280;29669;55.706;37.656;2022-08-03T08:44:11;100089.56;;;30.36;31.21
43814;BME280;29669;55.706;37.656;2022-08-03T08:47:33;100084.63;;;30.19;31.73
43814;BME280;29669;55.706;37.656;2022-08-03T08:50:59;100086.81;;;30.17;32.14
43814;BME280;29669;55.706;37.656;2022-08-03T08:54:21;100083.50;;;30.25;31.87
43814;BME280;29669;55.706;37.656;2022-08-03T09:01:09;100091.41;;;30.40;31.55
43814;BME280;29669;55.706;37.656;2022-08-03T09:04:30;100097.34;;;30.61;31.25
43814;BME280;29669;55.706;37.656;2022-08-03T09:07:52;100093.56;;;30.86;30.74
43814;BME280;29669;55.706;37.656;2022-08-03T09:11:13;100095.13;;;31.10;30.67
43814;BME280;29669;55.706;37.656;2022-08-03T09:14:54;100087.75;;;31.21;30.51
43814;BME280;29669;55.706;37.656;2022-08-03T09:18:29;100094.34;;;31.28;30.42
43814;BME280;29669;55.706;37.656;2022-08-03T09:22:15;100089.13;;;31.18;30.28
43814;BME280;29669;55.706;37.656;2022-08-03T09:25:40;100101.84;;;31.08;30.70
43814;BME280;29669;55.706;37.656;2022-08-03T09:29:08;100102.00;;;31.16;30.51
43814;BME280;29669;55.706;37.656;2022-08-03T09:32:35;100098.69;;;31.24;30.66
43814;BME280;29669;55.706;37.656;2022-08-03T09:35:59;100097.75;;;31.53;30.18
43814;BME280;29669;55.706;37.656;2022-08-03T09:39:24;100109.81;;;31.69;30.02
43814;BME280;29669;55.706;37.656;2022-08-03T09:43:11;100104.44;;;31.69;29.83
43814;BME280;29669;55.706;37.656;2022-08-03T09:46:46;100094.41;;;31.61;29.71
43814;BME280;29669;55.706;37.656;2022-08-03T09:50:09;100094.91;;;31.44;30.18
43814;BME280;29669;55.706;37.656;2022-08-03T09:53:41;100087.66;;;31.26;30.13
43814;BME280;29669;55.706;37.656;2022-08-03T09:57:06;100096.06;;;31.19;30.16
43814;BME280;29669;55.706;37.656;2022-08-03T10:00:27;100089.53;;;31.07;30.18
43814;BME280;29669;55.706;37.656;2022-08-03T10:03:56;100093.03;;;31.07;30.12
43814;BME280;29669;55.706;37.656;2022-08-03T10:07:20;100092.72;;;31.09;30.05
43814;BME280;29669;55.706;37.656;2022-08-03T10:10:52;100092.94;;;31.12;30.28
43814;BME280;29669;55.706;37.656;2022-08-03T10:14:13;100095.63;;;31.12;29.82
43814;BME280;29669;55.706;37.656;2022-08-03T10:17:36;100090.19;;;31.17;29.84
43814;BME280;29669;55.706;37.656;2022-08-03T10:21:06;100093.44;;;31.33;29.62
43814;BME280;29669;55.706;37.656;2022-08-03T10:24:29;100094.16;;;31.57;29.29
43814;BME280;29669;55.706;37.656;2022-08-03T10:27:50;100097.81;;;31.80;29.01
43814;BME280;29669;55.706;37.656;2022-08-03T10:31:12;100099.69;;;31.98;28.73
43814;BME280;29669;55.706;37.656;2022-08-03T10:34:36;100095.34;;;32.29;28.48
43814;BME280;29669;55.706;37.656;2022-08-03T10:38:11;100087.41;;;32.78;28.02
43814;BME280;29669;55.706;37.656;2022-08-03T10:41:40;100092.41;;;32.98;27.49
43814;BME280;29669;55.706;37.656;2022-08-03T10:45:30;100092.28;;;33.03;27.53
43814;BME280;29669;55.706;37.656;2022-08-03T10:48:53;100100.13;;;33.13;27.37
43814;BME280;29669;55.706;37.656;2022-08-03T10:52:14;100091.66;;;33.06;27.44
43814;BME280;29669;55.706;37.656;2022-08-03T11:00:03;100101.16;;;32.77;27.63
43814;BME280;29669;55.706;37.656;2022-08-03T11:03:09;100102.06;;;32.72;27.92
43814;BME280;29669;55.706;37.656;2022-08-03T11:06:31;100100.16;;;32.73;27.68
43814;BME280;29669;55.706;37.656;2022-08-03T11:09:53;100100.75;;;32.83;27.53
43814;BME280;29669;55.706;37.656;2022-08-03T11:13:18;100101.53;;;32.84;27.21
43814;BME280;29669;55.706;37.656;2022-08-03T11:16:41;100102.50;;;33.15;26.84
43814;BME280;29669;55.706;37.656;2022-08-03T11:19:58;100102.22;;;33.39;26.75
43814;BME280;29669;55.706;37.656;2022-08-03T11:23:45;100097.13;;;33.51;26.70
43814;BME280;29669;55.706;37.656;2022-08-03T11:27:27;100095.47;;;33.85;26.33
43814;BME280;29669;55.706;37.656;2022-08-03T11:30:41;100104.69;;;33.93;26.56
43814;BME280;29669;55.706;37.656;2022-08-03T11:37:27;100101.41;;;34.35;25.74
43814;BME280;29669;55.706;37.656;2022-08-03T11:41:31;100099.19;;;34.29;25.65
43814;BME280;29669;55.706;37.656;2022-08-03T11:44:56;100100.19;;;34.02;25.70
43814;BME280;29669;55.706;37.656;2022-08-03T11:48:17;100100.19;;;34.02;25.94
43814;BME280;29669;55.706;37.656;2022-08-03T11:51:39;100093.81;;;33.98;25.91
43814;BME280;29669;55.706;37.656;2022-08-03T11:55:00;100095.50;;;34.16;25.64
43814;BME280;29669;55.706;37.656;2022-08-03T11:58:22;100098.69;;;34.57;25.22
43814;BME280;29669;55.706;37.656;2022-08-03T12:02:11;100085.41;;;34.86;24.84
43814;BME280;29669;55.706;37.656;2022-08-03T12:10:08;100082.13;;;35.41;24.58
43814;BME280;29669;55.706;37.656;2022-08-03T12:13:44;100084.38;;;35.22;24.55
43814;BME280;29669;55.706;37.656;2022-08-03T12:17:36;100084.00;;;34.80;24.86
43814;BME280;29669;55.706;37.656;2022-08-03T12:21:08;100087.19;;;34.43;25.03
43814;BME280;29669;55.706;37.656;2022-08-03T12:24:40;100076.97;;;34.23;25.33
43814;BME280;29669;55.706;37.656;2022-08-03T12:28:11;100080.63;;;34.66;24.97
43814;BME280;29669;55.706;37.656;2022-08-03T12:31:44;100077.69;;;35.19;24.38
43814;BME280;29669;55.706;37.656;2022-08-03T12:35:05;100078.19;;;35.47;24.10
43814;BME280;29669;55.706;37.656;2022-08-03T12:38:26;100078.66;;;35.49;23.80
43814;BME280;29669;55.706;37.656;2022-08-03T12:41:52;100078.47;;;35.11;24.03
43814;BME280;29669;55.706;37.656;2022-08-03T12:45:25;100077.72;;;35.11;24.33
43814;BME280;29669;55.706;37.656;2022-08-03T12:49:12;100087.97;;;36.69;22.33
43814;BME280;29669;55.706;37.656;2022-08-03T12:52:41;100085.09;;;38.14;20.72
43814;BME280;29669;55.706;37.656;2022-08-03T12:56:04;100075.25;;;38.94;20.27
43814;BME280;29669;55.706;37.656;2022-08-03T12:59:33;100072.75;;;39.84;19.43
43814;BME280;29669;55.706;37.656;2022-08-03T13:03:05;100078.81;;;40.24;18.84
43814;BME280;29669;55.706;37.656;2022-08-03T13:06:56;100077.97;;;41.05;18.48
43814;BME280;29669;55.706;37.656;2022-08-03T13:10:30;100082.72;;;41.27;18.18
43814;BME280;29669;55.706;37.656;2022-08-03T13:13:53;100082.34;;;41.29;17.73
43814;BME280;29669;55.706;37.656;2022-08-03T13:17:14;100082.41;;;40.94;18.08
43814;BME280;29669;55.706;37.656;2022-08-03T13:20:35;100081.56;;;40.08;19.13
43814;BME280;29669;55.706;37.656;2022-08-03T13:23:56;100078.34;;;39.20;19.72
43814;BME280;29669;55.706;37.656;2022-08-03T13:27:18;100080.28;;;38.31;20.40
43814;BME280;29669;55.706;37.656;2022-08-03T13:30:59;100076.19;;;38.01;20.63
43814;BME280;29669;55.706;37.656;2022-08-03T13:34:20;100073.63;;;38.41;20.25
43814;BME280;29669;55.706;37.656;2022-08-03T13:37:41;100077.97;;;39.33;19.70
43814;BME280;29669;55.706;37.656;2022-08-03T13:41:02;100083.16;;;40.41;18.36
43814;BME280;29669;55.706;37.656;2022-08-03T13:44:23;100072.25;;;41.29;18.01
43814;BME280;29669;55.706;37.656;2022-08-03T13:47:44;100075.22;;;41.43;17.64
43814;BME280;29669;55.706;37.656;2022-08-03T13:51:05;100078.28;;;40.50;18.28
43814;BME280;29669;55.706;37.656;2022-08-03T13:54:29;100072.59;;;38.82;19.63
43814;BME280;29669;55.706;37.656;2022-08-03T13:57:53;100080.41;;;37.25;20.75
43814;BME280;29669;55.706;37.656;2022-08-03T14:01:14;100076.69;;;35.92;22.42
43814;BME280;29669;55.706;37.656;2022-08-03T14:04:55;100076.34;;;34.65;23.61
43814;BME280;29669;55.706;37.656;2022-08-03T14:08:16;100089.09;;;33.81;24.74
43814;BME280;29669;55.706;37.656;2022-08-03T14:11:37;100088.38;;;33.09;25.48
43814;BME280;29669;55.706;37.656;2022-08-03T14:15:14;100088.13;;;32.57;25.83
43814;BME280;29669;55.706;37.656;2022-08-03T14:18:35;100090.38;;;32.22;26.26
43814;BME280;29669;55.706;37.656;2022-08-03T14:21:57;100084.00;;;32.05;26.69
43814;BME280;29669;55.706;37.656;2022-08-03T14:25:18;100089.34;;;31.91;26.55
43814;BME280;29669;55.706;37.656;2022-08-03T14:28:56;100079.22;;;31.70;26.98
43814;BME280;29669;55.706;37.656;2022-08-03T14:32:18;100080.47;;;31.59;27.12
43814;BME280;29669;55.706;37.656;2022-08-03T14:35:39;100088.09;;;31.52;27.30
43814;BME280;29669;55.706;37.656;2022-08-03T14:39:00;100087.59;;;31.49;27.27
43814;BME280;29669;55.706;37.656;2022-08-03T14:42:21;100085.91;;;31.54;27.44
43814;BME280;29669;55.706;37.656;2022-08-03T14:45:42;100098.75;;;31.57;27.55
43814;BME280;29669;55.706;37.656;2022-08-03T14:49:06;100091.22;;;31.59;27.60
43814;BME280;29669;55.706;37.656;2022-08-03T14:52:47;100092.88;;;31.55;27.76
43814;BME280;29669;55.706;37.656;2022-08-03T14:56:11;100089.59;;;31.58;27.33
43814;BME280;29669;55.706;37.656;2022-08-03T14:59:32;100091.38;;;31.48;27.65
43814;BME280;29669;55.706;37.656;2022-08-03T15:03:03;100089.53;;;31.44;27.67
43814;BME280;29669;55.706;37.656;2022-08-03T15:06:24;100089.63;;;31.39;27.87
43814;BME280;29669;55.706;37.656;2022-08-03T15:09:45;100097.97;;;31.37;27.91
43814;BME280;29669;55.706;37.656;2022-08-03T15:13:08;100089.34;;;31.40;28.07
43814;BME280;29669;55.706;37.656;2022-08-03T15:16:29;100088.97;;;31.47;28.15
43814;BME280;29669;55.706;37.656;2022-08-03T15:19:50;100092.16;;;31.49;27.92
43814;BME280;29669;55.706;37.656;2022-08-03T15:23:31;100082.50;;;31.48;28.22
43814;BME280;29669;55.706;37.656;2022-08-03T15:26:52;100094.34;;;31.47;28.16
43814;BME280;29669;55.706;37.656;2022-08-03T15:30:13;100086.81;;;31.49;28.31
43814;BME280;29669;55.706;37.656;2022-08-03T15:33:34;100092.75;;;31.46;28.14
43814;BME280;29669;55.706;37.656;2022-08-03T15:36:55;100090.94;;;31.41;28.34
43814;BME280;29669;55.706;37.656;2022-08-03T15:40:22;100094.81;;;31.30;28.60
43814;BME280;29669;55.706;37.656;2022-08-03T15:43:44;100099.75;;;31.23;28.54
43814;BME280;29669;55.706;37.656;2022-08-03T15:47:07;100095.03;;;31.15;28.66
43814;BME280;29669;55.706;37.656;2022-08-03T15:50:29;100104.59;;;31.03;29.00
43814;BME280;29669;55.706;37.656;2022-08-03T15:53:50;100102.94;;;30.88;28.92
43814;BME280;29669;55.706;37.656;2022-08-03T15:57:11;100100.94;;;30.75;29.25
43814;BME280;29669;55.706;37.656;2022-08-03T16:00:32;100098.13;;;30.62;29.31
43814;BME280;29669;55.706;37.656;2022-08-03T16:03:53;100092.50;;;30.63;29.47
43814;BME280;29669;55.706;37.656;2022-08-03T16:07:14;100085.91;;;31.16;29.08
43814;BME280;29669;55.706;37.656;2022-08-03T16:11:10;100095.38;;;32.15;27.84
43814;BME280;29669;55.706;37.656;2022-08-03T16:14:31;100086.00;;;32.81;26.91
43814;BME280;29669;55.706;37.656;2022-08-03T16:18:00;100088.22;;;32.79;26.82
43814;BME280;29669;55.706;37.656;2022-08-03T16:21:21;100091.97;;;32.23;27.24
43814;BME280;29669;55.706;37.656;2022-08-03T16:24:54;100095.78;;;31.58;28.22
43814;BME280;29669;55.706;37.656;2022-08-03T16:28:08;100089.41;;;31.17;28.75
43814;BME280;29669;55.706;37.656;2022-08-03T16:31:30;100092.94;;;30.94;29.08
43814;BME280;29669;55.706;37.656;2022-08-03T16:34:57;100081.94;;;30.72;29.34
43814;BME280;29669;55.706;37.656;2022-08-03T16:38:27;100091.13;;;30.42;29.55
43814;BME280;29669;55.706;37.656;2022-08-03T16:41:49;100092.38;;;30.21;29.90
43814;BME280;29669;55.706;37.656;2022-08-03T16:45:08;100097.66;;;30.02;30.07
43814;BME280;29669;55.706;37.656;2022-08-03T16:48:29;100100.53;;;29.82;30.39
43814;BME280;29669;55.706;37.656;2022-08-03T16:51:51;100102.50;;;29.66;30.63
43814;BME280;29669;55.706;37.656;2022-08-03T16:55:13;100101.28;;;29.49;31.09
43814;BME280;29669;55.706;37.656;2022-08-03T16:58:54;100105.97;;;29.33;31.23
43814;BME280;29669;55.706;37.656;2022-08-03T17:02:22;100114.56;;;29.20;31.31
43814;BME280;29669;55.706;37.656;2022-08-03T17:05:43;100111.94;;;29.05;31.47
43814;BME280;29669;55.706;37.656;2022-08-03T17:09:12;100117.66;;;28.89;32.08
43814;BME280;29669;55.706;37.656;2022-08-03T17:12:44;100116.13;;;28.67;32.06
43814;BME280;29669;55.706;37.656;2022-08-03T17:16:06;100122.31;;;28.48;32.58
43814;BME280;29669;55.706;37.656;2022-08-03T17:19:31;100129.31;;;28.29;32.66
43814;BME280;29669;55.706;37.656;2022-08-03T17:23:02;100138.66;;;28.11;32.92
43814;BME280;29669;55.706;37.656;2022-08-03T17:26:44;100140.50;;;27.90;33.21
43814;BME280;29669;55.706;37.656;2022-08-03T17:30:09;100144.25;;;27.74;33.73
43814;BME280;29669;55.706;37.656;2022-08-03T17:33:31;100143.97;;;27.66;33.91
43814;BME280;29669;55.706;37.656;2022-08-03T17:37:01;100149.53;;;27.54;34.28
43814;BME280;29669;55.706;37.656;2022-08-03T17:40:42;100150.06;;;27.41;34.58
43814;BME280;29669;55.706;37.656;2022-08-03T17:44:04;100150.81;;;27.32;34.52
43814;BME280;29669;55.706;37.656;2022-08-03T17:47:43;100148.66;;;27.29;34.84
43814;BME280;29669;55.706;37.656;2022-08-03T17:55:02;100159.06;;;27.25;35.26
43814;BME280;29669;55.706;37.656;2022-08-03T17:59:06;100153.41;;;27.22;34.86
43814;BME280;29669;55.706;37.656;2022-08-03T18:03:07;100165.97;;;27.21;35.08
43814;BME280;29669;55.706;37.656;2022-08-03T18:06:37;100172.34;;;27.15;34.98
43814;BME280;29669;55.706;37.656;2022-08-03T18:10:02;100168.59;;;27.11;35.17
43814;BME280;29669;55.706;37.656;2022-08-03T18:13:23;100172.84;;;27.07;35.63
43814;BME280;29669;55.706;37.656;2022-08-03T18:17:05;100185.88;;;26.98;35.51
43814;BME280;29669;55.706;37.656;2022-08-03T18:20:28;100191.97;;;26.94;36.06
43814;BME280;29669;55.706;37.656;2022-08-03T18:23:47;100196.19;;;26.90;36.12
43814;BME280;29669;55.706;37.656;2022-08-03T18:27:09;100189.28;;;26.89;35.91
43814;BME280;29669;55.706;37.656;2022-08-03T18:30:51;100200.72;;;26.89;36.10
43814;BME280;29669;55.706;37.656;2022-08-03T18:34:14;100205.47;;;26.82;36.37
43814;BME280;29669;55.706;37.656;2022-08-03T18:37:43;100207.28;;;26.72;36.51
43814;BME280;29669;55.706;37.656;2022-08-03T18:41:07;100213.88;;;26.64;36.11
43814;BME280;29669;55.706;37.656;2022-08-03T18:44:40;100217.00;;;26.51;36.55
43814;BME280;29669;55.706;37.656;2022-08-03T18:48:10;100212.34;;;26.37;36.87
43814;BME280;29669;55.706;37.656;2022-08-03T18:51:37;100219.72;;;26.25;37.16
43814;BME280;29669;55.706;37.656;2022-08-03T18:55:07;100224.13;;;26.14;37.34
43814;BME280;29669;55.706;37.656;2022-08-03T18:59:02;100231.47;;;26.02;37.81
43814;BME280;29669;55.706;37.656;2022-08-03T19:06:05;100226.41;;;25.74;38.44
43814;BME280;29669;55.706;37.656;2022-08-03T19:09:53;100235.06;;;25.64;38.57
43814;BME280;29669;55.706;37.656;2022-08-03T19:13:22;100234.38;;;25.52;38.88
43814;BME280;29669;55.706;37.656;2022-08-03T19:16:46;100234.50;;;25.41;39.04
43814;BME280;29669;55.706;37.656;2022-08-03T19:20:07;100242.16;;;25.37;39.33
43814;BME280;29669;55.706;37.656;2022-08-03T19:23:32;100242.88;;;25.33;39.61
43814;BME280;29669;55.706;37.656;2022-08-03T19:27:01;100248.72;;;25.30;39.67
43814;BME280;29669;55.706;37.656;2022-08-03T19:30:24;100245.78;;;25.31;39.63
43814;BME280;29669;55.706;37.656;2022-08-03T19:34:12;100245.78;;;25.31;39.33
43814;BME280;29669;55.706;37.656;2022-08-03T19:37:35;100244.19;;;25.30;39.53
43814;BME280;29669;55.706;37.656;2022-08-03T19:41:01;100246.59;;;25.32;39.43
43814;BME280;29669;55.706;37.656;2022-08-03T19:44:25;100245.78;;;25.31;39.49
43814;BME280;29669;55.706;37.656;2022-08-03T19:47:57;100239.06;;;25.24;39.57
43814;BME280;29669;55.706;37.656;2022-08-03T19:51:28;100237.06;;;25.14;39.62
43814;BME280;29669;55.706;37.656;2022-08-03T19:55:10;100244.72;;;25.10;39.99
43814;BME280;29669;55.706;37.656;2022-08-03T19:58:32;100239.13;;;25.07;40.02
43814;BME280;29669;55.706;37.656;2022-08-03T20:01:59;100244.28;;;24.97;40.25
43814;BME280;29669;55.706;37.656;2022-08-03T20:05:32;100243.09;;;24.88;40.67
43814;BME280;29669;55.706;37.656;2022-08-03T20:09:00;100233.50;;;24.87;40.57
43814;BME280;29669;55.706;37.656;2022-08-03T20:12:23;100239.81;;;24.81;40.48
43814;BME280;29669;55.706;37.656;2022-08-03T20:15:45;100245.19;;;24.69;40.78
43814;BME280;29669;55.706;37.656;2022-08-03T20:19:06;100247.38;;;24.56;41.04
43814;BME280;29669;55.706;37.656;2022-08-03T20:22:32;100253.16;;;24.53;40.97
43814;BME280;29669;55.706;37.656;2022-08-03T20:25:56;100245.09;;;24.48;41.20
43814;BME280;29669;55.706;37.656;2022-08-03T20:29:28;100250.03;;;24.39;41.64
43814;BME280;29669;55.706;37.656;2022-08-03T20:33:10;100259.19;;;24.32;41.58
43814;BME280;29669;55.706;37.656;2022-08-03T20:36:51;100259.50;;;24.18;41.78
43814;BME280;29669;55.706;37.656;2022-08-03T20:40:15;100267.84;;;24.10;42.22
43814;BME280;29669;55.706;37.656;2022-08-03T20:43:36;100273.28;;;24.04;42.25
43814;BME280;29669;55.706;37.656;2022-08-03T20:46:57;100277.09;;;23.96;42.33
43814;BME280;29669;55.706;37.656;2022-08-03T20:50:29;100273.22;;;23.87;42.55
43814;BME280;29669;55.706;37.656;2022-08-03T20:53:53;100280.50;;;23.80;42.69
43814;BME280;29669;55.706;37.656;2022-08-03T20:57:34;100281.44;;;23.74;42.69
43814;BME280;29669;55.706;37.656;2022-08-03T21:00:57;100277.31;;;23.67;43.13
43814;BME280;29669;55.706;37.656;2022-08-03T21:04:18;100281.16;;;23.59;43.23
43814;BME280;29669;55.706;37.656;2022-08-03T21:07:50;100282.31;;;23.52;43.60
43814;BME280;29669;55.706;37.656;2022-08-03T21:11:16;100290.75;;;23.49;43.59
43814;BME280;29669;55.706;37.656;2022-08-03T21:15:06;100293.50;;;23.42;43.76
43814;BME280;29669;55.706;37.656;2022-08-03T21:18:51;100290.19;;;23.35;43.77
43814;BME280;29669;55.706;37.656;2022-08-03T21:22:07;100292.28;;;23.33;44.19
43814;BME280;29669;55.706;37.656;2022-08-03T21:25:32;100284.63;;;23.25;43.97
43814;BME280;29669;55.706;37.656;2022-08-03T21:28:55;100286.94;;;23.21;44.17
43814;BME280;29669;55.706;37.656;2022-08-03T21:32:16;100289.84;;;23.20;44.03
43814;BME280;29669;55.706;37.656;2022-08-03T21:35:39;100290.75;;;23.14;44.27
43814;BME280;29669;55.706;37.656;2022-08-03T21:39:01;100285.34;;;23.09;44.41
43814;BME280;29669;55.706;37.656;2022-08-03T21:42:24;100290.53;;;23.04;44.27
43814;BME280;29669;55.706;37.656;2022-08-03T21:45:57;100294.91;;;22.98;44.25
43814;BME280;29669;55.706;37.656;2022-08-03T21:49:19;100288.69;;;22.93;44.54
43814;BME280;29669;55.706;37.656;2022-08-03T21:53:02;100293.88;;;22.88;44.47
43814;BME280;29669;55.706;37.656;2022-08-03T21:56:26;100286.38;;;22.85;44.54
43814;BME280;29669;55.706;37.656;2022-08-03T21:59:53;100297.88;;;22.79;44.62
43814;BME280;29669;55.706;37.656;2022-08-03T22:03:12;100304.31;;;22.71;44.89
43814;BME280;29669;55.706;37.656;2022-08-03T22:06:34;100305.59;;;22.69;44.86
43814;BME280;29669;55.706;37.656;2022-08-03T22:09:57;100300.97;;;22.64;45.54
43814;BME280;29669;55.706;37.656;2022-08-03T22:13:18;100299.56;;;22.62;45.23
43814;BME280;29669;55.706;37.656;2022-08-03T22:16:50;100310.41;;;22.60;45.38
43814;BME280;29669;55.706;37.656;2022-08-03T22:20:14;100307.16;;;22.58;45.55
43814;BME280;29669;55.706;37.656;2022-08-03T22:23:39;100302.69;;;22.59;45.65
43814;BME280;29669;55.706;37.656;2022-08-03T22:27:01;100303.03;;;22.62;45.32
43814;BME280;29669;55.706;37.656;2022-08-03T22:30:41;100308.22;;;22.57;45.38
43814;BME280;29669;55.706;37.656;2022-08-03T22:34:02;100307.13;;;22.46;45.54
43814;BME280;29669;55.706;37.656;2022-08-03T22:37:31;100321.84;;;22.42;45.71
43814;BME280;29669;55.706;37.656;2022-08-03T22:40:55;100320.09;;;22.36;45.77
43814;BME280;29669;55.706;37.656;2022-08-03T22:44:17;100319.97;;;22.31;45.96
43814;BME280;29669;55.706;37.656;2022-08-03T22:47:39;100320.66;;;22.27;46.13
43814;BME280;29669;55.706;37.656;2022-08-03T22:51:01;100310.16;;;22.20;46.23
43814;BME280;29669;55.706;37.656;2022-08-03T22:54:22;100321.19;;;22.17;46.35
43814;BME280;29669;55.706;37.656;2022-08-03T22:57:43;100313.91;;;22.13;46.41
43814;BME280;29669;55.706;37.656;2022-08-03T23:01:09;100313.56;;;22.09;46.46
43814;BME280;29669;55.706;37.656;2022-08-03T23:04:31;100325.03;;;22.03;46.69
43814;BME280;29669;55.706;37.656;2022-08-03T23:07:52;100321.22;;;21.99;46.80
43814;BME280;29669;55.706;37.656;2022-08-03T23:11:16;100319.50;;;21.93;46.96
43814;BME280;29669;55.706;37.656;2022-08-03T23:15:37;100326.25;;;21.89;46.73
43814;BME280;29669;55.706;37.656;2022-08-03T23:18:59;100325.66;;;21.87;46.97
43814;BME280;29669;55.706;37.656;2022-08-03T23:22:32;100334.81;;;21.85;47.04
43814;BME280;29669;55.706;37.656;2022-08-03T23:25:58;100334.25;;;21.83;47.19
43814;BME280;29669;55.706;37.656;2022-08-03T23:29:14;100334.31;;;21.76;47.30
43814;BME280;29669;55.706;37.656;2022-08-03T23:32:35;100337.59;;;21.72;47.79
43814;BME280;29669;55.706;37.656;2022-08-03T23:36:00;100329.31;;;21.68;47.60
43814;BME280;29669;55.706;37.656;2022-08-03T23:39:37;100338.25;;;21.67;47.69
43814;BME280;29669;55.706;37.656;2022-08-03T23:43:01;100341.34;;;21.64;47.85
43814;BME280;29669;55.706;37.656;2022-08-03T23:46:43;100345.03;;;21.63;47.82
43814;BME280;29669;55.706;37.656;2022-08-03T23:50:04;100348.69;;;21.62;47.85
43814;BME280;29669;55.706;37.656;2022-08-03T23:53:30;100347.50;;;21.58;48.09
